Time;durP1;ratioP1;P1;durP2;ratioP2;P2;SDS_P1;SDS_P2;PMS_P1;PMS_P2;Temp;Humidity;BMP_temperature;BMP_pressure;BME280_temperature;BME280_humidity;BME280_pressure;Samples;Min_cycle;Max_cycle;Signal;HPM_P1;HPM_P2
2022/01/30 00:01:41;;;;;;;1.35;1.10;;;;;;;7.73;71.72;99993.13;5159487;28;20070;-68
2022/01/30 00:04:31;;;;;;;2.20;1.00;;;;;;;8.18;70.37;99998.94;5175677;28;20046;-67
2022/01/30 00:07:21;;;;;;;2.25;1.00;;;;;;;7.86;71.54;99988.72;5162650;28;20725;-68
2022/01/30 00:10:13;;;;;;;1.60;1.35;;;;;;;7.65;73.17;99990.13;5163040;28;20053;-67
2022/01/30 00:13:04;;;;;;;2.30;1.20;;;;;;;7.98;71.97;99985.25;5163715;28;20148;-67
2022/01/30 00:15:55;;;;;;;1.75;1.50;;;;;;;7.83;71.31;99974.88;5161185;28;20052;-67
2022/01/30 00:19:01;;;;;;;1.38;1.20;;;;;;;8.07;70.87;99993.50;5161685;28;20050;-69
2022/01/30 00:22:02;;;;;;;3.08;1.38;;;;;;;8.14;70.75;99990.34;5162480;28;20091;-68
2022/01/30 00:24:56;;;;;;;1.92;1.50;;;;;;;7.95;71.89;99993.38;5160844;28;20045;-68
2022/01/30 00:28:00;;;;;;;;;;;;;;;8.07;71.92;99998.78;5163691;28;20042;-68
2022/01/30 00:30:50;;;;;;;1.50;1.30;;;;;;;7.76;72.09;99983.19;5163677;28;19928;-68
2022/01/30 00:33:40;;;;;;;1.88;1.30;;;;;;;8.06;71.27;99995.31;5162052;28;20053;-68
2022/01/30 00:36:32;;;;;;;2.10;1.30;;;;;;;8.24;70.35;99980.00;5163043;28;20058;-68
2022/01/30 00:39:23;;;;;;;2.58;1.20;;;;;;;7.90;71.63;99978.78;5163095;28;20053;-68
2022/01/30 00:42:13;;;;;;;1.38;1.23;;;;;;;7.65;72.68;99990.13;5162381;28;20058;-68
2022/01/30 00:45:05;;;;;;;2.92;1.20;;;;;;;8.03;72.37;99992.03;5155918;28;20699;-67
2022/01/30 00:47:55;;;;;;;2.75;1.30;;;;;;;7.88;72.06;99978.03;5161969;28;20129;-68
2022/01/30 00:50:46;;;;;;;2.13;1.30;;;;;;;8.12;70.78;99984.31;5161331;28;20050;-68
2022/01/30 00:53:36;;;;;;;4.72;1.65;;;;;;;7.72;72.41;99991.44;5162295;28;20049;-68
2022/01/30 00:56:27;;;;;;;1.55;1.23;;;;;;;7.91;72.50;99996.31;5156789;28;20050;-67
2022/01/30 00:59:16;;;;;;;1.63;1.27;;;;;;;7.68;72.40;99995.19;5175791;28;20434;-67
2022/01/30 01:02:06;;;;;;;3.13;1.30;;;;;;;7.45;73.46;100000.22;5161044;28;20061;-68
2022/01/30 01:05:03;;;;;;;1.33;1.23;;;;;;;7.52;73.49;99990.09;5157798;28;20531;-68
2022/01/30 01:07:56;;;;;;;2.38;1.67;;;;;;;8.02;71.36;99999.09;5154495;28;20583;-68
2022/01/30 01:10:52;;;;;;;2.20;1.45;;;;;;;7.69;73.07;99996.91;5160804;28;20047;-67
2022/01/30 01:26:10;;;;;;;2.20;1.50;;;;;;;7.81;75.40;100033.03;5165819;28;20038;-68
2022/01/30 01:29:01;;;;;;;2.30;1.45;;;;;;;7.68;74.87;100017.19;5169272;28;20070;-68
2022/01/30 01:31:51;;;;;;;2.60;1.58;;;;;;;8.21;72.40;99998.69;5159453;28;20098;-68
2022/01/30 01:34:42;;;;;;;3.55;1.73;;;;;;;7.84;74.02;99990.59;5159319;28;20925;-69
2022/01/30 01:37:32;;;;;;;2.75;1.63;;;;;;;8.30;72.19;99991.94;5159838;28;20049;-67
2022/01/30 01:40:22;;;;;;;2.53;1.60;;;;;;;7.71;73.89;99984.44;5174200;28;20527;-67
2022/01/30 01:43:13;;;;;;;4.22;1.90;;;;;;;7.94;73.24;100002.25;5174471;28;20077;-68
2022/01/30 01:46:04;;;;;;;2.78;1.80;;;;;;;7.56;74.31;99996.03;5161480;28;20041;-68
2022/01/30 01:48:55;;;;;;;2.65;2.17;;;;;;;7.95;72.93;99990.75;5161568;28;20552;-69
2022/01/30 01:51:50;;;;;;;4.13;2.40;;;;;;;7.57;74.77;99997.72;5160764;28;20061;-68
2022/01/30 01:54:40;;;;;;;3.20;2.08;;;;;;;7.90;73.44;99986.72;5161203;28;20053;-68
2022/01/30 01:57:30;;;;;;;3.55;2.17;;;;;;;7.60;73.88;99989.59;5160352;28;20073;-68
2022/01/30 02:00:46;;;;;;;3.70;1.80;;;;;;;7.73;73.85;99978.13;5153508;28;20043;-68
2022/01/30 02:03:38;;;;;;;3.95;2.20;;;;;;;7.59;74.47;99988.75;5170055;28;20049;-68
2022/01/30 02:06:29;;;;;;;2.42;1.77;;;;;;;7.43;75.41;99982.78;5158909;28;20050;-68
2022/01/30 02:09:27;;;;;;;1.70;1.60;;;;;;;7.58;73.97;99994.13;5173579;28;20065;-69
2022/01/30 02:12:24;;;;;;;1.83;1.60;;;;;;;7.36;75.40;99984.97;5157564;28;20148;-68
2022/01/30 02:24:31;;;;;;;1.88;1.30;;;;;;;7.17;75.52;99976.53;5160437;28;20100;-68
2022/01/30 02:27:25;;;;;;;1.83;1.20;;;;;;;7.13;75.16;99961.84;5159504;28;20042;-68
2022/01/30 02:30:19;;;;;;;1.88;1.40;;;;;;;6.96;76.11;99953.22;5159438;28;20144;-68
2022/01/30 02:33:09;;;;;;;1.63;1.25;;;;;;;7.11;75.15;99967.22;5158518;28;20065;-68
2022/01/30 02:36:00;;;;;;;2.55;1.15;;;;;;;6.55;76.90;99959.28;5162591;28;20043;-67
2022/01/30 02:38:50;;;;;;;3.35;1.00;;;;;;;7.20;74.67;99957.88;5162746;28;20424;-68
2022/01/30 02:41:41;;;;;;;2.03;1.70;;;;;;;7.05;75.54;99951.78;5164029;28;20053;-69
2022/01/30 02:44:47;;;;;;;1.30;1.20;;;;;;;7.01;75.19;99961.69;5177591;28;20053;-68
2022/01/30 02:47:54;;;;;;;3.28;1.50;;;;;;;6.81;75.50;99941.00;5163980;28;20049;-68
2022/01/30 02:53:42;;;;;;;2.33;1.83;;;;;;;6.89;75.56;99940.50;5177965;28;20501;-69
2022/01/30 02:56:34;;;;;;;1.85;1.70;;;;;;;7.42;73.25;99968.75;5164908;28;20525;-68
2022/01/30 02:59:25;;;;;;;4.18;2.28;;;;;;;7.12;74.29;99965.41;5163786;28;20132;-67
2022/01/30 03:02:17;;;;;;;3.75;2.03;;;;;;;7.12;74.67;99981.25;5157835;28;20053;-68
2022/01/30 03:05:08;;;;;;;4.88;2.10;;;;;;;7.48;72.79;99978.91;5161860;28;20881;-68
2022/01/30 03:07:58;;;;;;;5.30;2.00;;;;;;;7.14;74.03;99988.13;5146049;28;20513;-68
2022/01/30 03:10:47;;;;;;;5.18;2.50;;;;;;;6.98;75.07;99990.88;5163949;28;20589;-67
2022/01/30 03:13:38;;;;;;;2.10;1.70;;;;;;;7.24;74.63;99997.13;5177539;28;20049;-68
2022/01/30 03:16:28;;;;;;;3.65;1.42;;;;;;;7.44;72.90;100008.22;5177936;28;20188;-68
2022/01/30 03:19:18;;;;;;;3.40;1.85;;;;;;;7.28;73.70;100010.97;5164112;28;20445;-68
2022/01/30 03:22:08;;;;;;;3.08;1.80;;;;;;;6.92;75.17;100016.78;5164256;28;20215;-67
2022/01/30 03:24:58;;;;;;;5.07;1.95;;;;;;;7.73;72.99;100032.72;5163377;28;20184;-67
2022/01/30 03:28:15;;;;;;;3.05;1.83;;;;;;;7.54;72.79;100022.50;5159401;28;20042;-68
2022/01/30 03:31:12;;;;;;;3.83;1.50;;;;;;;6.85;75.95;100041.84;5185736;28;20042;-68
2022/01/30 03:34:07;;;;;;;3.30;1.50;;;;;;;6.94;75.30;100042.13;5161167;28;20072;-68
2022/01/30 03:37:05;;;;;;;3.35;1.70;;;;;;;7.04;74.10;100037.97;5161767;28;20046;-68
2022/01/30 03:39:56;;;;;;;3.28;1.60;;;;;;;7.35;73.54;100030.78;5162961;28;20065;-67
2022/01/30 03:42:47;;;;;;;3.75;1.95;;;;;;;7.30;73.70;100040.75;5162377;28;20062;-69
2022/01/30 03:45:39;;;;;;;4.30;1.63;;;;;;;7.27;73.45;100019.84;5170346;28;20045;-68
2022/01/30 03:48:29;;;;;;;5.47;2.53;;;;;;;7.56;72.65;100039.09;5162689;28;20054;-69
2022/01/30 03:51:38;;;;;;;2.95;1.73;;;;;;;7.17;73.95;100031.94;5159122;28;20120;-68
2022/01/30 03:54:47;;;;;;;1.98;1.65;;;;;;;7.06;74.27;100032.59;5163286;28;20057;-68
2022/01/30 03:57:37;;;;;;;4.43;1.73;;;;;;;7.92;71.10;100043.78;5159857;28;20295;-68
2022/01/30 04:00:29;;;;;;;4.72;1.77;;;;;;;6.76;74.69;100038.00;5172724;28;20050;-68
2022/01/30 04:03:25;;;;;;;6.45;2.00;;;;;;;6.82;74.00;100063.94;5172782;28;20052;-68
2022/01/30 04:06:16;;;;;;;7.38;1.92;;;;;;;7.25;73.59;100061.28;5176231;28;20448;-70
2022/01/30 04:09:07;;;;;;;3.03;1.60;;;;;;;7.25;73.56;100061.28;5174198;28;20069;-68
2022/01/30 04:12:17;;;;;;;4.03;1.88;;;;;;;7.61;72.39;100060.75;5177271;28;20049;-69
2022/01/30 04:15:37;;;;;;;3.78;1.90;;;;;;;7.46;72.10;100065.22;5132540;28;20576;-68
2022/01/30 04:18:47;;;;;;;3.20;2.13;;;;;;;8.25;69.46;100074.19;5162657;28;20050;-67
2022/01/30 04:21:46;;;;;;;2.63;1.85;;;;;;;7.63;71.68;100087.06;5162225;28;20077;-69
2022/01/30 04:24:45;;;;;;;6.35;1.90;;;;;;;7.81;70.70;100087.66;5163500;28;20127;-67
2022/01/30 04:27:44;;;;;;;4.65;2.42;;;;;;;7.56;72.81;100078.69;5162891;28;20065;-66
2022/01/30 04:30:55;;;;;;;6.13;2.22;;;;;;;7.39;72.57;100071.84;5154545;28;20148;-69
2022/01/30 04:33:58;;;;;;;7.38;2.33;;;;;;;6.70;73.04;100031.31;5174113;28;20787;-66
2022/01/30 04:37:04;;;;;;;6.35;2.08;;;;;;;6.88;74.58;100074.13;5174698;28;20073;-69
2022/01/30 05:00:53;;;;;;;7.68;3.10;;;;;;;6.90;73.17;100072.25;5184943;28;20046;-68
2022/01/30 05:04:21;;;;;;;6.35;3.40;;;;;;;6.84;74.08;100072.63;5159312;28;20563;-69
2022/01/30 05:07:32;;;;;;;7.55;3.33;;;;;;;6.44;74.09;100055.75;5160017;28;20049;-70
2022/01/30 05:10:41;;;;;;;13.05;3.72;;;;;;;6.45;75.42;100070.59;5160470;28;20053;-69
2022/01/30 05:13:51;;;;;;;11.30;3.35;;;;;;;6.62;73.37;100074.88;5161934;28;20053;-69
2022/01/30 05:16:57;;;;;;;8.52;3.55;;;;;;;6.36;74.46;100074.66;5156764;28;20054;-69
2022/01/30 05:20:02;;;;;;;10.48;3.13;;;;;;;6.39;74.71;100063.06;5161941;28;20061;-69
2022/01/30 05:23:05;;;;;;;5.70;3.72;;;;;;;6.94;72.63;100100.13;5162243;28;20054;-69
2022/01/30 05:26:08;;;;;;;12.07;3.38;;;;;;;6.88;72.36;100094.38;5158730;28;20135;-68
2022/01/30 05:29:06;;;;;;;9.13;3.30;;;;;;;7.00;71.82;100109.47;5170978;28;20046;-69
2022/01/30 05:32:19;;;;;;;8.48;3.40;;;;;;;6.57;72.60;100096.22;5159153;28;20049;-69
2022/01/30 05:35:18;;;;;;;9.18;3.65;;;;;;;6.52;73.91;100117.59;5159680;28;20683;-68
2022/01/30 05:38:31;;;;;;;17.05;4.10;;;;;;;5.97;76.00;100118.16;5161682;28;20549;-68
2022/01/30 05:41:41;;;;;;;8.75;3.53;;;;;;;6.08;75.26;100107.84;5156794;28;20196;-67
2022/01/30 05:48:08;;;;;;;13.10;5.72;;;;;;;6.39;73.60;100147.34;5174382;28;20057;-68
2022/01/30 05:51:20;;;;;;;14.75;4.28;;;;;;;6.52;73.91;100133.41;5160567;28;20072;-68
2022/01/30 05:54:16;;;;;;;11.98;4.03;;;;;;;5.78;75.67;100143.78;5168968;28;20173;-68
2022/01/30 05:57:07;;;;;;;14.93;4.65;;;;;;;6.44;73.67;100153.22;5171181;28;20057;-67
2022/01/30 06:00:03;;;;;;;8.40;4.15;;;;;;;6.16;75.30;100160.09;5172651;28;20141;-67
2022/01/30 06:03:12;;;;;;;17.00;4.38;;;;;;;6.28;74.55;100161.16;5161948;28;20058;-67
2022/01/30 06:06:02;;;;;;;13.30;4.25;;;;;;;6.14;75.50;100171.63;5145681;28;20050;-71
2022/01/30 06:09:12;;;;;;;13.23;4.40;;;;;;;6.09;74.85;100161.34;5162680;28;20054;-68
2022/01/30 06:12:03;;;;;;;13.70;4.82;;;;;;;6.97;72.77;100179.03;5174523;28;20054;-68
2022/01/30 06:14:55;;;;;;;13.00;4.53;;;;;;;6.74;73.59;100176.94;5178449;28;20426;-67
2022/01/30 06:17:45;;;;;;;9.15;4.32;;;;;;;6.27;74.34;100175.28;5161633;28;20535;-68
2022/01/30 06:20:39;;;;;;;16.63;4.55;;;;;;;7.01;73.50;100182.34;5163929;28;20054;-68
2022/01/30 06:23:48;;;;;;;13.75;4.63;;;;;;;6.67;74.34;100191.41;5164308;28;20054;-68
2022/01/30 06:26:58;;;;;;;16.65;5.43;;;;;;;6.01;75.64;100198.66;5161065;28;20096;-68
2022/01/30 06:30:08;;;;;;;18.25;5.00;;;;;;;6.16;75.21;100196.97;5160788;28;20536;-68
2022/01/30 06:33:21;;;;;;;17.88;4.30;;;;;;;6.35;74.13;100192.31;5165529;28;20104;-68
2022/01/30 06:36:30;;;;;;;14.45;4.57;;;;;;;6.42;74.21;100205.13;5159545;28;20054;-67
2022/01/30 06:39:31;;;;;;;14.07;4.00;;;;;;;5.95;76.05;100206.88;5164312;28;20053;-67
2022/01/30 06:42:42;;;;;;;12.75;3.67;;;;;;;5.96;75.23;100205.09;5165144;28;20189;-67
2022/01/30 06:45:51;;;;;;;12.15;4.38;;;;;;;5.94;75.93;100205.19;5164153;28;20623;-68
2022/01/30 06:49:17;;;;;;;11.50;3.83;;;;;;;5.65;75.68;100196.22;5104571;29;20051;-68
2022/01/30 06:52:39;;;;;;;14.25;4.00;;;;;;;6.03;75.44;100207.31;5146225;28;20846;-68
2022/01/30 06:55:48;;;;;;;10.52;3.35;;;;;;;6.13;73.63;100209.44;5163714;28;20134;-68
2022/01/30 06:58:38;;;;;;;16.40;4.03;;;;;;;6.68;72.18;100201.84;5175304;22;20102;-82
2022/01/30 07:02:09;;;;;;;18.80;4.05;;;;;;;7.46;68.93;100209.53;5179873;28;20535;-82
2022/01/30 07:05:26;;;;;;;13.88;3.72;;;;;;;6.57;71.72;100194.56;5164008;28;20050;-81
2022/01/30 07:08:29;;;;;;;20.25;4.18;;;;;;;6.92;69.86;100228.59;5180072;28;20504;-81
2022/01/30 07:11:19;;;;;;;17.15;3.35;;;;;;;7.10;69.17;100244.25;5187027;22;20176;-67
2022/01/30 07:14:09;;;;;;;9.32;3.40;;;;;;;6.27;71.04;100249.88;5162212;28;20536;-66
2022/01/30 07:16:59;;;;;;;10.40;3.63;;;;;;;6.39;71.09;100247.47;5158717;28;20181;-66
2022/01/30 07:19:49;;;;;;;13.07;3.22;;;;;;;7.00;68.36;100257.13;5162658;28;20050;-67
2022/01/30 07:22:39;;;;;;;14.25;3.63;;;;;;;6.92;68.72;100261.97;5152277;28;20054;-65
2022/01/30 07:25:30;;;;;;;11.82;3.67;;;;;;;7.57;66.83;100265.13;5152874;28;20443;-66
2022/01/30 07:28:20;;;;;;;19.88;4.55;;;;;;;7.74;66.29;100279.94;5156185;28;20043;-66
2022/01/30 07:31:10;;;;;;;16.67;4.00;;;;;;;7.50;65.59;100282.28;5162281;28;20042;-67
2022/01/30 07:34:01;;;;;;;18.45;3.67;;;;;;;7.01;67.95;100286.03;5161728;28;20507;-67
2022/01/30 07:36:55;;;;;;;17.60;3.72;;;;;;;7.37;66.53;100297.16;5161220;28;20551;-67
2022/01/30 07:39:46;;;;;;;18.10;4.30;;;;;;;7.58;66.40;100290.56;5156030;28;20050;-66
2022/01/30 07:42:36;;;;;;;19.35;3.72;;;;;;;7.53;65.39;100314.63;5160843;28;20057;-66
2022/01/30 07:45:28;;;;;;;16.20;3.67;;;;;;;7.31;67.17;100311.56;5176116;28;20065;-67
2022/01/30 07:48:18;;;;;;;13.93;3.58;;;;;;;7.53;65.77;100309.34;5172597;28;20088;-66
2022/01/30 07:51:08;;;;;;;17.55;3.10;;;;;;;6.30;68.24;100296.25;5153786;28;20077;-67
2022/01/30 07:53:58;;;;;;;12.32;2.95;;;;;;;6.56;68.16;100316.75;5153534;28;20113;-67
2022/01/30 07:56:48;;;;;;;13.82;3.17;;;;;;;7.00;66.86;100315.16;5157346;28;20129;-68
2022/01/30 07:59:38;;;;;;;10.60;3.22;;;;;;;6.37;69.20;100318.69;5161374;28;20049;-65
2022/01/30 08:02:28;;;;;;;23.42;3.80;;;;;;;6.26;68.51;100319.28;5162841;28;20172;-66
2022/01/30 08:05:18;;;;;;;21.27;4.13;;;;;;;5.91;68.99;100317.66;5163329;28;20082;-66
2022/01/30 08:08:08;;;;;;;18.55;3.63;;;;;;;6.00;69.48;100306.69;5163465;28;20123;-66
2022/01/30 08:10:58;;;;;;;14.43;3.25;;;;;;;6.21;68.50;100315.19;5162482;28;20118;-66
2022/01/30 08:13:49;;;;;;;17.50;3.78;;;;;;;5.84;69.57;100307.47;5162618;28;20050;-66
2022/01/30 08:16:39;;;;;;;18.65;3.72;;;;;;;5.73;69.01;100303.69;5160541;28;20065;-66
2022/01/30 08:19:30;;;;;;;24.88;4.50;;;;;;;6.19;68.22;100299.50;5154639;28;20049;-66
2022/01/30 08:22:29;;;;;;;20.52;3.65;;;;;;;5.78;68.94;100299.03;5158354;28;20077;-67
2022/01/30 08:25:21;;;;;;;14.07;3.33;;;;;;;6.15;68.96;100297.09;5157276;28;20044;-67
2022/01/30 08:28:11;;;;;;;17.38;3.95;;;;;;;6.44;68.13;100292.84;5161233;28;20192;-67
2022/01/30 08:31:01;;;;;;;23.88;4.05;;;;;;;6.93;65.95;100283.00;5155887;28;20595;-67
2022/01/30 08:33:52;;;;;;;20.17;4.38;;;;;;;6.91;65.39;100299.84;5160954;28;20089;-67
2022/01/30 08:36:41;;;;;;;16.42;3.10;;;;;;;6.70;65.75;100292.25;5162109;28;20493;-67
2022/01/30 08:39:32;;;;;;;21.40;3.95;;;;;;;6.56;65.34;100300.94;5160600;28;20061;-69
2022/01/30 08:42:22;;;;;;;21.27;3.40;;;;;;;6.28;66.83;100295.50;5162406;28;20122;-70
2022/01/30 08:45:14;;;;;;;10.88;3.17;;;;;;;7.28;63.35;100291.50;5161142;28;20061;-68
2022/01/30 08:48:04;;;;;;;19.05;3.42;;;;;;;6.52;66.04;100275.69;5160373;28;20424;-68
2022/01/30 08:50:55;;;;;;;20.45;3.90;;;;;;;6.25;63.36;100293.03;5160928;28;20042;-68
2022/01/30 08:53:45;;;;;;;10.98;2.85;;;;;;;7.52;59.79;100286.53;5162245;28;20050;-67
2022/01/30 08:56:35;;;;;;;17.35;2.72;;;;;;;8.38;58.48;100283.88;5162224;28;20128;-67
2022/01/30 08:59:25;;;;;;;18.75;2.90;;;;;;;7.00;60.59;100281.72;5175607;28;20200;-67
2022/01/30 09:02:15;;;;;;;18.92;3.35;;;;;;;7.56;59.12;100284.56;5156021;28;20543;-67
2022/01/30 09:05:07;;;;;;;19.25;3.05;;;;;;;7.83;55.96;100273.25;5152094;28;20143;-67
2022/01/30 09:07:57;;;;;;;10.80;2.67;;;;;;;7.34;56.74;100278.88;5153043;28;20057;-67
2022/01/30 09:10:49;;;;;;;16.88;3.20;;;;;;;7.91;54.39;100263.03;5154900;28;20527;-67
2022/01/30 09:13:39;;;;;;;16.30;3.10;;;;;;;7.20;54.26;100255.94;5154038;28;20191;-67
2022/01/30 09:16:29;;;;;;;16.10;2.75;;;;;;;8.04;52.36;100278.97;5159538;28;20108;-66
2022/01/30 09:19:19;;;;;;;20.05;2.58;;;;;;;7.81;50.84;100270.69;5161950;28;20065;-67
2022/01/30 09:22:15;;;;;;;16.35;2.67;;;;;;;7.76;52.10;100280.69;5161669;28;20459;-66
2022/01/30 09:25:06;;;;;;;17.92;2.60;;;;;;;7.70;49.82;100294.25;5162128;28;20101;-66
2022/01/30 09:27:56;;;;;;;16.23;2.85;;;;;;;7.66;50.53;100293.59;5162107;28;20177;-67
2022/01/30 09:30:47;;;;;;;17.90;2.80;;;;;;;7.75;51.75;100302.78;5161791;28;20057;-66
2022/01/30 09:33:38;;;;;;;20.10;3.58;;;;;;;8.04;51.71;100300.94;5162053;28;20057;-66
2022/01/30 09:36:28;;;;;;;25.05;3.13;;;;;;;8.03;50.29;100296.63;5159754;28;20117;-66
2022/01/30 09:39:18;;;;;;;19.05;3.00;;;;;;;7.17;51.80;100300.97;5156580;28;20121;-66
2022/01/30 09:42:09;;;;;;;16.77;3.03;;;;;;;7.28;53.10;100299.41;5144369;28;20113;-68
2022/01/30 09:45:04;;;;;;;14.77;3.78;;;;;;;7.39;54.22;100316.38;5151549;28;20076;-69
2022/01/30 09:47:56;;;;;;;17.08;2.58;;;;;;;7.35;53.56;100312.22;5159817;28;20175;-68
2022/01/30 09:50:48;;;;;;;17.98;2.78;;;;;;;6.87;54.34;100322.91;5144790;28;20062;-69
2022/01/30 09:53:40;;;;;;;18.50;2.80;;;;;;;6.26;57.52;100331.63;5162617;28;20089;-68
2022/01/30 09:56:30;;;;;;;16.35;2.80;;;;;;;6.65;56.66;100332.97;5161712;28;20093;-68
2022/01/30 09:59:20;;;;;;;27.00;3.63;;;;;;;6.74;56.65;100330.66;5148045;28;20057;-68
2022/01/30 10:02:12;;;;;;;13.93;2.90;;;;;;;5.97;59.09;100336.66;5161754;28;20073;-64
2022/01/30 10:05:03;;;;;;;14.05;2.90;;;;;;;6.09;58.93;100346.53;5153179;28;20054;-64
2022/01/30 10:07:56;;;;;;;17.80;3.30;;;;;;;6.50;58.36;100342.59;5160687;28;20053;-64
2022/01/30 10:10:59;;;;;;;25.50;3.65;;;;;;;6.89;59.16;100352.69;5161465;28;20441;-64
2022/01/30 10:14:01;;;;;;;17.83;3.50;;;;;;;7.64;56.66;100363.28;5154279;28;20058;-67
2022/01/30 10:16:52;;;;;;;17.83;3.28;;;;;;;6.81;57.21;100354.88;5140658;28;20054;-64
2022/01/30 10:19:42;;;;;;;13.40;2.95;;;;;;;7.34;56.52;100350.09;5149457;28;20061;-65
2022/01/30 10:22:35;;;;;;;15.80;2.30;;;;;;;7.06;56.44;100344.66;5161484;28;20052;-70
2022/01/30 10:25:36;;;;;;;15.35;3.30;;;;;;;6.66;56.83;100367.16;5162058;28;20049;-71
2022/01/30 10:28:31;;;;;;;21.25;3.28;;;;;;;6.46;57.24;100370.88;5175131;28;20061;-68
2022/01/30 10:31:24;;;;;;;23.70;2.53;;;;;;;6.09;59.21;100359.72;5162246;28;20531;-67
2022/01/30 10:34:19;;;;;;;18.63;3.45;;;;;;;7.09;57.77;100369.16;5162019;28;20228;-67
2022/01/30 10:37:23;;;;;;;16.65;2.65;;;;;;;5.95;57.94;100370.09;5147703;28;20078;-68
2022/01/30 10:40:19;;;;;;;22.02;3.35;;;;;;;6.47;58.96;100369.94;5155469;28;20050;-68
2022/01/30 10:43:09;;;;;;;19.02;3.10;;;;;;;6.28;57.97;100358.69;5150771;28;20054;-68
2022/01/30 10:46:16;;;;;;;18.05;3.38;;;;;;;6.17;56.64;100363.72;5153411;28;20132;-69
2022/01/30 10:49:12;;;;;;;17.90;2.70;;;;;;;6.68;55.09;100359.16;5154748;28;20046;-67
2022/01/30 10:52:03;;;;;;;12.43;2.15;;;;;;;6.50;56.00;100335.53;5161545;28;20053;-67
2022/01/30 10:55:04;;;;;;;12.90;2.38;;;;;;;6.59;54.94;100355.25;5160568;28;20050;-70
2022/01/30 10:57:59;;;;;;;11.52;1.98;;;;;;;7.30;52.58;100336.25;5165173;28;20060;-67
2022/01/30 11:00:55;;;;;;;14.05;2.13;;;;;;;6.64;52.75;100341.81;5163991;28;20050;-71
2022/01/30 11:03:50;;;;;;;17.23;2.20;;;;;;;6.17;52.13;100338.22;5165052;28;20093;-68
2022/01/30 11:06:46;;;;;;;14.95;2.83;;;;;;;6.49;51.44;100319.78;5161605;28;20074;-69
2022/01/30 11:09:46;;;;;;;15.60;2.60;;;;;;;6.57;52.56;100334.25;5160972;28;20616;-68
2022/01/30 11:12:46;;;;;;;8.82;1.77;;;;;;;6.80;51.19;100345.28;5151625;28;20058;-68
2022/01/30 11:15:43;;;;;;;10.80;2.17;;;;;;;6.86;51.94;100339.66;5163728;28;20084;-68
2022/01/30 11:18:34;;;;;;;15.73;2.72;;;;;;;6.64;52.26;100339.16;5163949;28;20113;-69
2022/01/30 11:21:26;;;;;;;16.58;2.50;;;;;;;7.29;51.57;100337.19;5155128;28;20421;-68
2022/01/30 11:24:19;;;;;;;14.88;2.55;;;;;;;7.51;51.62;100332.31;5165535;28;20192;-69
2022/01/30 11:27:11;;;;;;;22.45;3.60;;;;;;;6.67;52.80;100344.28;5162539;28;20050;-69
2022/01/30 11:30:03;;;;;;;14.80;3.63;;;;;;;6.86;52.01;100341.47;5163818;28;20054;-70
2022/01/30 11:32:54;;;;;;;14.98;2.63;;;;;;;6.43;53.36;100326.25;5177054;28;20512;-68
2022/01/30 11:35:44;;;;;;;22.90;3.50;;;;;;;6.65;54.00;100341.72;5164313;28;20061;-69
2022/01/30 11:38:38;;;;;;;21.95;2.90;;;;;;;6.92;53.90;100341.09;5164321;28;20061;-68
2022/01/30 11:41:34;;;;;;;19.95;3.65;;;;;;;7.90;52.75;100327.38;5177371;28;20057;-68
2022/01/30 11:44:26;;;;;;;19.17;2.80;;;;;;;7.93;51.45;100325.38;5163302;28;20157;-68
2022/01/30 11:47:18;;;;;;;21.40;3.03;;;;;;;6.95;53.97;100323.31;5161514;28;20065;-69
2022/01/30 11:50:09;;;;;;;19.58;3.35;;;;;;;7.32;52.78;100284.25;5158566;28;20058;-68
2022/01/30 11:53:02;;;;;;;19.92;3.35;;;;;;;6.67;55.62;100302.09;5161501;28;20058;-68
2022/01/30 11:56:00;;;;;;;15.60;3.45;;;;;;;6.92;55.18;100291.88;5153490;28;20140;-67
2022/01/30 11:58:56;;;;;;;18.92;3.47;;;;;;;6.95;55.60;100296.09;5161585;28;20057;-67
2022/01/30 12:01:47;;;;;;;16.30;2.88;;;;;;;7.01;54.85;100286.03;5163110;28;20058;-67
2022/01/30 12:04:58;;;;;;;20.88;3.67;;;;;;;7.80;54.83;100279.56;5160646;28;20130;-69
2022/01/30 12:07:51;;;;;;;21.77;3.92;;;;;;;7.96;53.75;100263.63;5145004;28;20109;-68
2022/01/30 12:10:44;;;;;;;22.85;3.80;;;;;;;9.03;51.61;100277.84;5163701;28;20057;-70
2022/01/30 12:13:44;;;;;;;21.00;3.45;;;;;;;9.45;49.32;100280.34;5174196;28;20120;-66
2022/01/30 12:16:52;;;;;;;19.50;3.90;;;;;;;9.36;50.09;100287.94;5156577;28;20121;-66
2022/01/30 12:19:44;;;;;;;25.00;3.83;;;;;;;8.83;51.15;100292.38;5151929;28;20047;-67
2022/01/30 12:22:34;;;;;;;19.95;3.15;;;;;;;9.02;51.32;100278.78;5150712;28;20042;-67
2022/01/30 12:25:30;;;;;;;23.83;3.28;;;;;;;8.73;51.21;100275.44;5155866;28;20096;-66
2022/01/30 12:28:40;;;;;;;23.10;3.22;;;;;;;8.96;49.88;100276.56;5161518;28;20035;-67
2022/01/30 12:31:34;;;;;;;13.82;2.70;;;;;;;8.93;50.92;100277.59;5151495;28;20050;-68
2022/01/30 12:34:24;;;;;;;18.08;3.20;;;;;;;8.73;51.34;100278.06;5159327;28;20057;-67
2022/01/30 12:37:20;;;;;;;17.65;2.90;;;;;;;8.92;50.92;100275.91;5142123;28;20051;-68
2022/01/30 12:40:10;;;;;;;19.77;3.22;;;;;;;9.16;49.13;100276.06;5155819;28;20503;-68
2022/01/30 12:43:02;;;;;;;16.60;2.80;;;;;;;7.53;52.21;100276.81;5151403;28;20065;-68
2022/01/30 12:46:04;;;;;;;15.07;2.65;;;;;;;6.94;52.76;100278.56;5160905;28;20049;-68
2022/01/30 12:48:59;;;;;;;14.10;2.22;;;;;;;6.97;53.15;100286.31;5159275;28;20057;-70
2022/01/30 12:51:55;;;;;;;21.58;2.70;;;;;;;7.23;53.00;100280.34;5162290;28;20137;-68
2022/01/30 12:54:47;;;;;;;14.40;3.20;;;;;;;8.38;50.75;100273.28;5152766;28;20419;-68
2022/01/30 12:57:40;;;;;;;18.63;2.40;;;;;;;8.24;48.87;100274.16;5175139;28;20521;-68
2022/01/30 13:00:30;;;;;;;23.15;3.28;;;;;;;8.40;49.10;100260.81;5186568;22;20045;-83
2022/01/30 13:03:20;;;;;;;18.17;2.83;;;;;;;9.12;48.50;100253.41;5198746;28;20155;-83
2022/01/30 13:06:11;;;;;;;14.43;2.70;;;;;;;9.20;46.15;100258.16;5179720;28;20407;-82
2022/01/30 13:09:03;;;;;;;17.45;2.20;;;;;;;7.74;48.14;100259.66;5164594;28;20069;-82
2022/01/30 13:11:59;;;;;;;13.40;2.55;;;;;;;8.43;48.92;100257.97;5182233;28;20137;-82
2022/01/30 13:14:49;;;;;;;9.70;1.95;;;;;;;7.59;48.07;100247.41;5169600;28;20077;-84
2022/01/30 13:17:41;;;;;;;14.53;2.33;;;;;;;8.35;47.81;100219.75;5180938;23;20647;31
2022/01/30 13:20:31;;;;;;;15.38;3.05;;;;;;;8.60;47.68;100269.25;5138030;28;20346;-70
2022/01/30 13:23:25;;;;;;;15.27;2.72;;;;;;;7.95;49.55;100256.66;5157934;28;20101;-70
2022/01/30 13:26:33;;;;;;;17.20;2.90;;;;;;;8.27;50.03;100264.31;5139605;28;20053;-69
2022/01/30 13:29:25;;;;;;;23.23;2.50;;;;;;;8.27;49.89;100240.53;5138371;28;20046;-70
2022/01/30 13:32:15;;;;;;;14.50;3.03;;;;;;;7.89;51.58;100249.94;5143285;28;20129;-70
2022/01/30 13:35:13;;;;;;;13.45;2.65;;;;;;;7.97;51.21;100254.75;5140224;28;20199;-70
2022/01/30 13:38:06;;;;;;;18.85;3.08;;;;;;;7.12;52.29;100258.19;5141676;28;20045;-70
2022/01/30 13:41:02;;;;;;;14.18;2.72;;;;;;;6.67;52.27;100246.75;5143907;28;20102;-70
2022/01/30 13:43:57;;;;;;;14.65;2.78;;;;;;;7.79;50.90;100250.63;5144137;28;20132;-68
2022/01/30 13:47:02;;;;;;;16.00;2.45;;;;;;;7.62;49.61;100255.16;5161178;28;20045;-68
2022/01/30 13:49:53;;;;;;;17.40;2.47;;;;;;;7.79;49.79;100258.53;5148722;28;20053;-69
2022/01/30 13:52:44;;;;;;;22.42;2.78;;;;;;;7.67;51.12;100247.78;5148536;28;20046;-69
2022/01/30 13:55:37;;;;;;;13.40;2.50;;;;;;;8.20;49.15;100256.78;5148266;28;20046;-69
2022/01/30 13:58:37;;;;;;;10.40;2.28;;;;;;;7.12;50.46;100245.88;5142940;28;20093;-67
2022/01/30 14:01:30;;;;;;;11.27;2.70;;;;;;;7.15;51.64;100239.53;5141845;28;20122;-68
2022/01/30 14:04:22;;;;;;;17.20;2.55;;;;;;;7.38;50.52;100246.06;5145510;28;20054;-68
2022/01/30 14:07:21;;;;;;;16.95;2.40;;;;;;;7.19;50.76;100241.06;5153259;28;20061;-67
2022/01/30 14:10:12;;;;;;;16.25;2.47;;;;;;;7.71;49.35;100248.44;5139912;28;20640;-68
2022/01/30 14:13:23;;;;;;;18.45;2.80;;;;;;;7.02;50.51;100240.28;5137863;28;20191;-68
2022/01/30 14:16:18;;;;;;;11.07;2.47;;;;;;;7.32;50.70;100247.31;5126812;28;20054;-69
2022/01/30 14:19:18;;;;;;;21.02;2.75;;;;;;;7.18;51.60;100257.81;5142143;28;20088;-69
2022/01/30 14:22:19;;;;;;;10.10;2.10;;;;;;;7.17;51.75;100241.16;5140330;28;20154;-68
2022/01/30 14:25:12;;;;;;;17.73;2.25;;;;;;;7.22;51.43;100256.72;5139254;28;20054;-70
2022/01/30 14:28:03;;;;;;;22.00;2.97;;;;;;;7.80;50.89;100233.81;5138217;28;20125;-70
2022/01/30 14:30:55;;;;;;;11.15;2.22;;;;;;;8.03;49.33;100235.88;5143561;28;20297;-70